sensor_id;sensor_type;location;lat;lon;timestamp;P1;P4;P2;P0;N10;N4;N25;N1;N05;TS
72225;SPS30;60130;52.250;5.048;2024-03-23T00:55:00;5.31;;4.74;;;;;;;
72225;SPS30;60130;52.250;5.048;2024-03-23T01:00:00;5.51;;4.88;;;;;;;
72225;SPS30;60130;52.250;5.048;2024-03-23T01:05:00;6.17;;5.25;;;;;;;
72225;SPS30;60130;52.250;5.048;2024-03-23T01:10:00;5.60;;4.88;;;;;;;
72225;SPS30;60130;52.250;5.048;2024-03-23T01:15:00;5.20;;4.47;;;;;;;
72225;SPS30;60130;52.250;5.048;2024-03-23T01:20:00;4.67;;4.09;;;;;;;
72225;SPS30;60130;52.250;5.048;2024-03-23T01:25:00;4.95;;4.36;;;;;;;
72225;SPS30;60130;52.250;5.048;2024-03-23T01:30:00;4.96;;4.33;;;;;;;
72225;SPS30;60130;52.250;5.048;2024-03-23T01:35:00;4.86;;4.30;;;;;;;
72225;SPS30;60130;52.250;5.048;2024-03-23T01:40:00;5.67;;4.87;;;;;;;
72225;SPS30;60130;52.250;5.048;2024-03-23T01:45:00;5.17;;4.46;;;;;;;
72225;SPS30;60130;52.250;5.048;2024-03-23T01:50:00;4.49;;3.94;;;;;;;
72225;SPS30;60130;52.250;5.048;2024-03-23T01:55:00;4.69;;4.19;;;;;;;
72225;SPS30;60130;52.250;5.048;2024-03-23T02:00:00;4.94;;4.38;;;;;;;
72225;SPS30;60130;52.250;5.048;2024-03-23T02:05:00;4.51;;3.82;;;;;;;
72225;SPS30;60130;52.250;5.048;2024-03-23T02:10:00;6.28;;5.06;;;;;;;
72225;SPS30;60130;52.250;5.048;2024-03-23T02:15:00;4.50;;3.82;;;;;;;
72225;SPS30;60130;52.250;5.048;2024-03-23T02:20:00;4.10;;3.43;;;;;;;
72225;SPS30;60130;52.250;5.048;2024-03-23T02:25:00;3.54;;2.96;;;;;;;
72225;SPS30;60130;52.250;5.048;2024-03-23T02:30:00;3.56;;2.85;;;;;;;
72225;SPS30;60130;52.250;5.048;2024-03-23T02:35:00;3.83;;3.04;;;;;;;
72225;SPS30;60130;52.250;5.048;2024-03-23T02:40:00;2.77;;2.23;;;;;;;
72225;SPS30;60130;52.250;5.048;2024-03-23T02:45:00;2.92;;2.31;;;;;;;
72225;SPS30;60130;52.250;5.048;2024-03-23T02:50:00;2.76;;2.17;;;;;;;
72225;SPS30;60130;52.250;5.048;2024-03-23T02:55:00;4.27;;3.33;;;;;;;
72225;SPS30;60130;52.250;5.048;2024-03-23T03:00:00;3.22;;2.52;;;;;;;
72225;SPS30;60130;52.250;5.048;2024-03-23T03:05:00;2.52;;1.96;;;;;;;
72225;SPS30;60130;52.250;5.048;2024-03-23T03:10:00;2.42;;1.91;;;;;;;
72225;SPS30;60130;52.250;5.048;2024-03-23T03:15:00;3.56;;2.72;;;;;;;
72225;SPS30;60130;52.250;5.048;2024-03-23T03:20:00;2.37;;1.85;;;;;;;
72225;SPS30;60130;52.250;5.048;2024-03-23T03:25:00;3.30;;2.62;;;;;;;
72225;SPS30;60130;52.250;5.048;2024-03-23T03:30:00;2.46;;1.90;;;;;;;
72225;SPS30;60130;52.250;5.048;2024-03-23T03:35:00;2.40;;1.88;;;;;;;
72225;SPS30;60130;52.250;5.048;2024-03-23T03:40:01;2.34;;1.81;;;;;;;
72225;SPS30;60130;52.250;5.048;2024-03-23T03:45:00;1.83;;1.39;;;;;;;
72225;SPS30;60130;52.250;5.048;2024-03-23T03:50:00;2.51;;1.88;;;;;;;
72225;SPS30;60130;52.250;5.048;2024-03-23T03:55:01;2.63;;1.98;;;;;;;
72225;SPS30;60130;52.250;5.048;2024-03-23T04:00:00;2.68;;2.04;;;;;;;
72225;SPS30;60130;52.250;5.048;2024-03-23T04:05:00;2.60;;1.99;;;;;;;
72225;SPS30;60130;52.250;5.048;2024-03-23T04:10:00;2.03;;1.59;;;;;;;
72225;SPS30;60130;52.250;5.048;2024-03-23T04:15:00;1.77;;1.40;;;;;;;
72225;SPS30;60130;52.250;5.048;2024-03-23T04:20:00;1.88;;1.49;;;;;;;
72225;SPS30;60130;52.250;5.048;2024-03-23T04:25:00;2.68;;2.13;;;;;;;
72225;SPS30;60130;52.250;5.048;2024-03-23T04:30:00;2.20;;1.70;;;;;;;
72225;SPS30;60130;52.250;5.048;2024-03-23T04:35:00;2.25;;1.73;;;;;;;
72225;SPS30;60130;52.250;5.048;2024-03-23T04:40:00;2.76;;2.16;;;;;;;
72225;SPS30;60130;52.250;5.048;2024-03-23T04:45:00;3.49;;2.70;;;;;;;
72225;SPS30;60130;52.250;5.048;2024-03-23T04:50:00;2.41;;1.86;;;;;;;
72225;SPS30;60130;52.250;5.048;2024-03-23T04:55:00;2.16;;1.67;;;;;;;
72225;SPS30;60130;52.250;5.048;2024-03-23T05:00:00;2.47;;1.92;;;;;;;
72225;SPS30;60130;52.250;5.048;2024-03-23T05:05:00;2.16;;1.74;;;;;;;
72225;SPS30;60130;52.250;5.048;2024-03-23T05:10:00;1.91;;1.52;;;;;;;
72225;SPS30;60130;52.250;5.048;2024-03-23T05:15:00;2.12;;1.72;;;;;;;
72225;SPS30;60130;52.250;5.048;2024-03-23T05:20:00;1.96;;1.63;;;;;;;
72225;SPS30;60130;52.250;5.048;2024-03-23T05:25:00;2.10;;1.76;;;;;;;
72225;SPS30;60130;52.250;5.048;2024-03-23T05:30:00;2.04;;1.72;;;;;;;
72225;SPS30;60130;52.250;5.048;2024-03-23T05:35:00;1.64;;1.38;;;;;;;
72225;SPS30;60130;52.250;5.048;2024-03-23T05:40:00;1.85;;1.51;;;;;;;
72225;SPS30;60130;52.250;5.048;2024-03-23T05:45:00;2.15;;1.71;;;;;;;
72225;SPS30;60130;52.250;5.048;2024-03-23T05:50:00;2.87;;2.24;;;;;;;
72225;SPS30;60130;52.250;5.048;2024-03-23T05:55:00;1.80;;1.44;;;;;;;
72225;SPS30;60130;52.250;5.048;2024-03-23T06:00:00;1.91;;1.58;;;;;;;
72225;SPS30;60130;52.250;5.048;2024-03-23T06:05:00;2.85;;2.40;;;;;;;
72225;SPS30;60130;52.250;5.048;2024-03-23T06:10:00;1.96;;1.69;;;;;;;
72225;SPS30;60130;52.250;5.048;2024-03-23T06:15:00;3.07;;2.53;;;;;;;
72225;SPS30;60130;52.250;5.048;2024-03-23T06:20:00;2.74;;2.23;;;;;;;
72225;SPS30;60130;52.250;5.048;2024-03-23T06:25:00;3.07;;2.54;;;;;;;
72225;SPS30;60130;52.250;5.048;2024-03-23T06:30:00;2.39;;2.11;;;;;;;
72225;SPS30;60130;52.250;5.048;2024-03-23T06:35:00;2.55;;2.25;;;;;;;
72225;SPS30;60130;52.250;5.048;2024-03-23T06:40:00;2.63;;2.39;;;;;;;
72225;SPS30;60130;52.250;5.048;2024-03-23T06:45:00;2.50;;2.29;;;;;;;
72225;SPS30;60130;52.250;5.048;2024-03-23T06:50:00;2.87;;2.64;;;;;;;
72225;SPS30;60130;52.250;5.048;2024-03-23T06:55:00;2.77;;2.56;;;;;;;
72225;SPS30;60130;52.250;5.048;2024-03-23T07:00:00;2.81;;2.61;;;;;;;
72225;SPS30;60130;52.250;5.048;2024-03-23T07:05:00;2.52;;2.31;;;;;;;
72225;SPS30;60130;52.250;5.048;2024-03-23T07:10:00;2.61;;2.36;;;;;;;
72225;SPS30;60130;52.250;5.048;2024-03-23T07:15:00;2.82;;2.50;;;;;;;
72225;SPS30;60130;52.250;5.048;2024-03-23T07:20:00;2.47;;2.18;;;;;;;
72225;SPS30;60130;52.250;5.048;2024-03-23T07:25:00;2.49;;2.17;;;;;;;
72225;SPS30;60130;52.250;5.048;2024-03-23T07:30:00;2.42;;2.10;;;;;;;
72225;SPS30;60130;52.250;5.048;2024-03-23T07:35:00;1.89;;1.59;;;;;;;
72225;SPS30;60130;52.250;5.048;2024-03-23T07:40:00;2.20;;1.80;;;;;;;
72225;SPS30;60130;52.250;5.048;2024-03-23T07:45:00;2.09;;1.72;;;;;;;
72225;SPS30;60130;52.250;5.048;2024-03-23T07:50:00;2.46;;2.07;;;;;;;
72225;SPS30;60130;52.250;5.048;2024-03-23T07:55:00;1.99;;1.65;;;;;;;
72225;SPS30;60130;52.250;5.048;2024-03-23T08:00:00;2.32;;1.85;;;;;;;
72225;SPS30;60130;52.250;5.048;2024-03-23T08:05:00;2.29;;1.84;;;;;;;
72225;SPS30;60130;52.250;5.048;2024-03-23T08:10:00;2.88;;2.38;;;;;;;
72225;SPS30;60130;52.250;5.048;2024-03-23T08:15:00;1.80;;1.47;;;;;;;
72225;SPS30;60130;52.250;5.048;2024-03-23T08:20:00;2.61;;2.15;;;;;;;
72225;SPS30;60130;52.250;5.048;2024-03-23T08:25:00;1.69;;1.36;;;;;;;
72225;SPS30;60130;52.250;5.048;2024-03-23T08:30:00;1.93;;1.54;;;;;;;
72225;SPS30;60130;52.250;5.048;2024-03-23T08:35:00;1.84;;1.42;;;;;;;
72225;SPS30;60130;52.250;5.048;2024-03-23T08:40:00;2.27;;1.72;;;;;;;
72225;SPS30;60130;52.250;5.048;2024-03-23T08:45:00;2.34;;1.73;;;;;;;
72225;SPS30;60130;52.250;5.048;2024-03-23T08:50:00;2.63;;1.96;;;;;;;
72225;SPS30;60130;52.250;5.048;2024-03-23T08:55:00;2.53;;1.90;;;;;;;
72225;SPS30;60130;52.250;5.048;2024-03-23T09:00:00;3.39;;2.61;;;;;;;
72225;SPS30;60130;52.250;5.048;2024-03-23T09:05:00;1.56;;1.21;;;;;;;
72225;SPS30;60130;52.250;5.048;2024-03-23T09:10:00;2.33;;1.74;;;;;;;
72225;SPS30;60130;52.250;5.048;2024-03-23T09:15:00;2.31;;1.75;;;;;;;
72225;SPS30;60130;52.250;5.048;2024-03-23T09:20:00;2.62;;2.02;;;;;;;
72225;SPS30;60130;52.250;5.048;2024-03-23T09:25:00;2.63;;2.05;;;;;;;
72225;SPS30;60130;52.250;5.048;2024-03-23T09:30:00;2.69;;2.06;;;;;;;
72225;SPS30;60130;52.250;5.048;2024-03-23T09:35:00;2.98;;2.27;;;;;;;
72225;SPS30;60130;52.250;5.048;2024-03-23T09:40:00;2.07;;1.56;;;;;;;
72225;SPS30;60130;52.250;5.048;2024-03-23T09:45:00;3.01;;2.34;;;;;;;
72225;SPS30;60130;52.250;5.048;2024-03-23T09:50:00;2.33;;1.80;;;;;;;
72225;SPS30;60130;52.250;5.048;2024-03-23T09:55:00;2.65;;2.06;;;;;;;
72225;SPS30;60130;52.250;5.048;2024-03-23T10:00:00;2.02;;1.54;;;;;;;
72225;SPS30;60130;52.250;5.048;2024-03-23T10:05:00;1.85;;1.45;;;;;;;
72225;SPS30;60130;52.250;5.048;2024-03-23T10:10:01;2.23;;1.69;;;;;;;
72225;SPS30;60130;52.250;5.048;2024-03-23T10:15:00;2.58;;1.92;;;;;;;
72225;SPS30;60130;52.250;5.048;2024-03-23T10:20:00;2.63;;1.97;;;;;;;
72225;SPS30;60130;52.250;5.048;2024-03-23T10:30:07;3.08;;2.24;;;;;;;
72225;SPS30;60130;52.250;5.048;2024-03-23T10:40:00;2.37;;1.74;;;;;;;
72225;SPS30;60130;52.250;5.048;2024-03-23T10:45:00;3.22;;2.31;;;;;;;
72225;SPS30;60130;52.250;5.048;2024-03-23T10:50:00;2.24;;1.62;;;;;;;
72225;SPS30;60130;52.250;5.048;2024-03-23T10:55:00;2.46;;1.80;;;;;;;
72225;SPS30;60130;52.250;5.048;2024-03-23T11:00:01;2.94;;2.21;;;;;;;
72225;SPS30;60130;52.250;5.048;2024-03-23T11:05:00;2.91;;2.20;;;;;;;
72225;SPS30;60130;52.250;5.048;2024-03-23T11:10:00;3.62;;2.62;;;;;;;
72225;SPS30;60130;52.250;5.048;2024-03-23T11:15:01;2.24;;1.65;;;;;;;
72225;SPS30;60130;52.250;5.048;2024-03-23T11:20:01;1.83;;1.34;;;;;;;
72225;SPS30;60130;52.250;5.048;2024-03-23T11:25:00;2.47;;1.80;;;;;;;
72225;SPS30;60130;52.250;5.048;2024-03-23T11:30:09;2.75;;2.02;;;;;;;
72225;SPS30;60130;52.250;5.048;2024-03-23T11:35:00;1.74;;1.28;;;;;;;
72225;SPS30;60130;52.250;5.048;2024-03-23T11:40:00;1.92;;1.38;;;;;;;
72225;SPS30;60130;52.250;5.048;2024-03-23T11:45:06;3.16;;2.26;;;;;;;
72225;SPS30;60130;52.250;5.048;2024-03-23T11:50:00;2.89;;2.08;;;;;;;
72225;SPS30;60130;52.250;5.048;2024-03-23T11:55:03;1.64;;1.20;;;;;;;
72225;SPS30;60130;52.250;5.048;2024-03-23T12:00:00;1.60;;1.17;;;;;;;
72225;SPS30;60130;52.250;5.048;2024-03-23T12:10:03;2.43;;1.72;;;;;;;
72225;SPS30;60130;52.250;5.048;2024-03-23T12:15:02;2.00;;1.40;;;;;;;
72225;SPS30;60130;52.250;5.048;2024-03-23T12:20:00;1.83;;1.27;;;;;;;
72225;SPS30;60130;52.250;5.048;2024-03-23T12:25:00;2.18;;1.51;;;;;;;
72225;SPS30;60130;52.250;5.048;2024-03-23T12:30:00;2.05;;1.42;;;;;;;
72225;SPS30;60130;52.250;5.048;2024-03-23T12:35:00;3.43;;2.44;;;;;;;
72225;SPS30;60130;52.250;5.048;2024-03-23T12:40:00;2.83;;2.05;;;;;;;
72225;SPS30;60130;52.250;5.048;2024-03-23T12:45:00;1.78;;1.37;;;;;;;
72225;SPS30;60130;52.250;5.048;2024-03-23T12:50:00;2.62;;2.00;;;;;;;
72225;SPS30;60130;52.250;5.048;2024-03-23T12:55:00;1.68;;1.28;;;;;;;
72225;SPS30;60130;52.250;5.048;2024-03-23T13:00:00;1.69;;1.33;;;;;;;
72225;SPS30;60130;52.250;5.048;2024-03-23T13:05:00;1.77;;1.33;;;;;;;
72225;SPS30;60130;52.250;5.048;2024-03-23T13:10:00;1.66;;1.27;;;;;;;
72225;SPS30;60130;52.250;5.048;2024-03-23T13:15:00;1.87;;1.40;;;;;;;
72225;SPS30;60130;52.250;5.048;2024-03-23T13:20:00;1.37;;1.02;;;;;;;
72225;SPS30;60130;52.250;5.048;2024-03-23T13:25:00;2.89;;2.14;;;;;;;
72225;SPS30;60130;52.250;5.048;2024-03-23T13:30:00;1.53;;1.15;;;;;;;
72225;SPS30;60130;52.250;5.048;2024-03-23T13:35:00;1.53;;1.17;;;;;;;
72225;SPS30;60130;52.250;5.048;2024-03-23T13:40:00;1.66;;1.23;;;;;;;
72225;SPS30;60130;52.250;5.048;2024-03-23T13:45:00;2.11;;1.60;;;;;;;
72225;SPS30;60130;52.250;5.048;2024-03-23T13:50:00;1.73;;1.29;;;;;;;
72225;SPS30;60130;52.250;5.048;2024-03-23T13:55:00;2.47;;1.82;;;;;;;
72225;SPS30;60130;52.250;5.048;2024-03-23T14:00:00;2.09;;1.55;;;;;;;
72225;SPS30;60130;52.250;5.048;2024-03-23T14:05:01;1.40;;1.03;;;;;;;
72225;SPS30;60130;52.250;5.048;2024-03-23T14:10:02;1.32;;0.99;;;;;;;
72225;SPS30;60130;52.250;5.048;2024-03-23T14:15:00;1.67;;1.27;;;;;;;
72225;SPS30;60130;52.250;5.048;2024-03-23T14:20:00;1.26;;0.97;;;;;;;
72225;SPS30;60130;52.250;5.048;2024-03-23T14:25:00;1.73;;1.32;;;;;;;
72225;SPS30;60130;52.250;5.048;2024-03-23T14:30:00;1.68;;1.34;;;;;;;
72225;SPS30;60130;52.250;5.048;2024-03-23T14:35:00;1.85;;1.45;;;;;;;
72225;SPS30;60130;52.250;5.048;2024-03-23T14:40:00;1.67;;1.27;;;;;;;
72225;SPS30;60130;52.250;5.048;2024-03-23T14:45:00;2.08;;1.55;;;;;;;
72225;SPS30;60130;52.250;5.048;2024-03-23T14:50:00;1.80;;1.31;;;;;;;
72225;SPS30;60130;52.250;5.048;2024-03-23T14:55:00;1.44;;1.04;;;;;;;
72225;SPS30;60130;52.250;5.048;2024-03-23T15:00:00;2.37;;1.75;;;;;;;
72225;SPS30;60130;52.250;5.048;2024-03-23T15:05:00;1.97;;1.46;;;;;;;
72225;SPS30;60130;52.250;5.048;2024-03-23T15:10:00;2.38;;1.78;;;;;;;
72225;SPS30;60130;52.250;5.048;2024-03-23T15:15:00;2.34;;1.73;;;;;;;
72225;SPS30;60130;52.250;5.048;2024-03-23T15:20:00;2.22;;1.66;;;;;;;
72225;SPS30;60130;52.250;5.048;2024-03-23T15:25:00;1.86;;1.42;;;;;;;
72225;SPS30;60130;52.250;5.048;2024-03-23T15:30:00;2.43;;1.86;;;;;;;
72225;SPS30;60130;52.250;5.048;2024-03-23T15:35:00;2.14;;1.66;;;;;;;
72225;SPS30;60130;52.250;5.048;2024-03-23T15:40:00;1.63;;1.26;;;;;;;
72225;SPS30;60130;52.250;5.048;2024-03-23T15:45:00;1.98;;1.50;;;;;;;
72225;SPS30;60130;52.250;5.048;2024-03-23T15:50:00;1.75;;1.35;;;;;;;
72225;SPS30;60130;52.250;5.048;2024-03-23T15:55:00;1.45;;1.10;;;;;;;
72225;SPS30;60130;52.250;5.048;2024-03-23T16:00:00;1.30;;1.05;;;;;;;
72225;SPS30;60130;52.250;5.048;2024-03-23T16:05:00;1.56;;1.29;;;;;;;
72225;SPS30;60130;52.250;5.048;2024-03-23T16:10:00;1.77;;1.47;;;;;;;
72225;SPS30;60130;52.250;5.048;2024-03-23T16:15:00;1.15;;0.91;;;;;;;
72225;SPS30;60130;52.250;5.048;2024-03-23T16:20:00;2.79;;2.23;;;;;;;
72225;SPS30;60130;52.250;5.048;2024-03-23T16:25:00;0.97;;0.77;;;;;;;
72225;SPS30;60130;52.250;5.048;2024-03-23T16:30:00;1.03;;0.80;;;;;;;
72225;SPS30;60130;52.250;5.048;2024-03-23T16:35:00;0.94;;0.75;;;;;;;
72225;SPS30;60130;52.250;5.048;2024-03-23T16:40:00;2.42;;1.93;;;;;;;
72225;SPS30;60130;52.250;5.048;2024-03-23T16:45:00;1.03;;0.87;;;;;;;
72225;SPS30;60130;52.250;5.048;2024-03-23T16:50:00;1.52;;1.34;;;;;;;
72225;SPS30;60130;52.250;5.048;2024-03-23T16:55:00;1.11;;1.04;;;;;;;
72225;SPS30;60130;52.250;5.048;2024-03-23T17:00:00;1.86;;1.76;;;;;;;
72225;SPS30;60130;52.250;5.048;2024-03-23T17:05:00;1.53;;1.44;;;;;;;
72225;SPS30;60130;52.250;5.048;2024-03-23T17:10:00;1.01;;0.95;;;;;;;
72225;SPS30;60130;52.250;5.048;2024-03-23T17:15:03;1.38;;1.19;;;;;;;
72225;SPS30;60130;52.250;5.048;2024-03-23T17:20:00;0.73;;0.65;;;;;;;
72225;SPS30;60130;52.250;5.048;2024-03-23T17:25:00;0.71;;0.61;;;;;;;
72225;SPS30;60130;52.250;5.048;2024-03-23T17:30:00;1.23;;1.05;;;;;;;
72225;SPS30;60130;52.250;5.048;2024-03-23T17:35:00;0.91;;0.76;;;;;;;
72225;SPS30;60130;52.250;5.048;2024-03-23T17:40:00;1.53;;1.29;;;;;;;
72225;SPS30;60130;52.250;5.048;2024-03-23T17:45:00;1.11;;0.92;;;;;;;
72225;SPS30;60130;52.250;5.048;2024-03-23T17:50:00;0.86;;0.71;;;;;;;
72225;SPS30;60130;52.250;5.048;2024-03-23T17:55:00;2.16;;1.82;;;;;;;
72225;SPS30;60130;52.250;5.048;2024-03-23T18:00:00;2.02;;1.99;;;;;;;
72225;SPS30;60130;52.250;5.048;2024-03-23T18:05:00;0.60;;0.58;;;;;;;
72225;SPS30;60130;52.250;5.048;2024-03-23T18:10:00;0.91;;0.87;;;;;;;
72225;SPS30;60130;52.250;5.048;2024-03-23T18:15:00;1.07;;1.02;;;;;;;
72225;SPS30;60130;52.250;5.048;2024-03-23T18:20:00;2.78;;2.60;;;;;;;
72225;SPS30;60130;52.250;5.048;2024-03-23T18:25:00;3.21;;3.18;;;;;;;
72225;SPS30;60130;52.250;5.048;2024-03-23T18:30:00;0.72;;0.68;;;;;;;
72225;SPS30;60130;52.250;5.048;2024-03-23T18:35:00;1.18;;1.07;;;;;;;
72225;SPS30;60130;52.250;5.048;2024-03-23T18:40:00;1.36;;1.15;;;;;;;
72225;SPS30;60130;52.250;5.048;2024-03-23T18:45:00;1.72;;1.39;;;;;;;
72225;SPS30;60130;52.250;5.048;2024-03-23T18:50:00;1.58;;1.24;;;;;;;
72225;SPS30;60130;52.250;5.048;2024-03-23T18:55:00;1.46;;1.13;;;;;;;
72225;SPS30;60130;52.250;5.048;2024-03-23T19:00:00;1.06;;0.82;;;;;;;
72225;SPS30;60130;52.250;5.048;2024-03-23T19:05:00;0.86;;0.68;;;;;;;
72225;SPS30;60130;52.250;5.048;2024-03-23T19:10:00;1.46;;1.16;;;;;;;
72225;SPS30;60130;52.250;5.048;2024-03-23T19:15:00;1.32;;1.06;;;;;;;
72225;SPS30;60130;52.250;5.048;2024-03-23T19:20:00;1.76;;1.44;;;;;;;
72225;SPS30;60130;52.250;5.048;2024-03-23T19:25:00;1.48;;1.22;;;;;;;
72225;SPS30;60130;52.250;5.048;2024-03-23T19:30:00;1.67;;1.37;;;;;;;
72225;SPS30;60130;52.250;5.048;2024-03-23T19:35:00;1.76;;1.46;;;;;;;
72225;SPS30;60130;52.250;5.048;2024-03-23T19:40:00;0.78;;0.66;;;;;;;
72225;SPS30;60130;52.250;5.048;2024-03-23T19:45:00;1.66;;1.45;;;;;;;
72225;SPS30;60130;52.250;5.048;2024-03-23T19:50:00;1.08;;0.97;;;;;;;
72225;SPS30;60130;52.250;5.048;2024-03-23T19:55:00;1.72;;1.55;;;;;;;
72225;SPS30;60130;52.250;5.048;2024-03-23T20:00:00;1.68;;1.50;;;;;;;
72225;SPS30;60130;52.250;5.048;2024-03-23T20:05:00;2.06;;1.83;;;;;;;
72225;SPS30;60130;52.250;5.048;2024-03-23T20:10:00;2.33;;2.01;;;;;;;
72225;SPS30;60130;52.250;5.048;2024-03-23T20:15:00;1.88;;1.69;;;;;;;
72225;SPS30;60130;52.250;5.048;2024-03-23T20:20:00;1.36;;1.21;;;;;;;
72225;SPS30;60130;52.250;5.048;2024-03-23T20:25:00;2.07;;1.81;;;;;;;
72225;SPS30;60130;52.250;5.048;2024-03-23T20:30:00;1.41;;1.24;;;;;;;
72225;SPS30;60130;52.250;5.048;2024-03-23T20:35:00;1.58;;1.38;;;;;;;
72225;SPS30;60130;52.250;5.048;2024-03-23T20:40:00;1.40;;1.24;;;;;;;
72225;SPS30;60130;52.250;5.048;2024-03-23T20:45:00;1.14;;1.02;;;;;;;
72225;SPS30;60130;52.250;5.048;2024-03-23T20:50:00;1.09;;0.98;;;;;;;
72225;SPS30;60130;52.250;5.048;2024-03-23T20:55:00;1.86;;1.64;;;;;;;
72225;SPS30;60130;52.250;5.048;2024-03-23T21:00:00;1.83;;1.68;;;;;;;
72225;SPS30;60130;52.250;5.048;2024-03-23T21:05:00;1.36;;1.26;;;;;;;
72225;SPS30;60130;52.250;5.048;2024-03-23T21:10:00;1.54;;1.40;;;;;;;
72225;SPS30;60130;52.250;5.048;2024-03-23T21:15:00;1.49;;1.34;;;;;;;
72225;SPS30;60130;52.250;5.048;2024-03-23T21:20:00;1.18;;1.09;;;;;;;
72225;SPS30;60130;52.250;5.048;2024-03-23T21:25:00;1.75;;1.64;;;;;;;
72225;SPS30;60130;52.250;5.048;2024-03-23T21:30:00;1.18;;1.09;;;;;;;
72225;SPS30;60130;52.250;5.048;2024-03-23T21:35:00;1.57;;1.46;;;;;;;
72225;SPS30;60130;52.250;5.048;2024-03-23T21:40:00;2.13;;1.99;;;;;;;
72225;SPS30;60130;52.250;5.048;2024-03-23T21:45:00;3.38;;3.09;;;;;;;
72225;SPS30;60130;52.250;5.048;2024-03-23T21:50:00;3.06;;2.79;;;;;;;
72225;SPS30;60130;52.250;5.048;2024-03-23T21:55:00;3.86;;3.71;;;;;;;
72225;SPS30;60130;52.250;5.048;2024-03-23T22:00:00;3.64;;3.46;;;;;;;
72225;SPS30;60130;52.250;5.048;2024-03-23T22:05:00;4.19;;3.86;;;;;;;
72225;SPS30;60130;52.250;5.048;2024-03-23T22:10:00;4.35;;3.89;;;;;;;
72225;SPS30;60130;52.250;5.048;2024-03-23T22:15:00;2.27;;2.17;;;;;;;
72225;SPS30;60130;52.250;5.048;2024-03-23T22:20:00;2.32;;2.27;;;;;;;
72225;SPS30;60130;52.250;5.048;2024-03-23T22:25:00;2.70;;2.70;;;;;;;
72225;SPS30;60130;52.250;5.048;2024-03-23T22:30:00;2.36;;2.31;;;;;;;
72225;SPS30;60130;52.250;5.048;2024-03-23T22:35:00;2.49;;2.39;;;;;;;
72225;SPS30;60130;52.250;5.048;2024-03-23T22:40:00;2.04;;1.92;;;;;;;
72225;SPS30;60130;52.250;5.048;2024-03-23T22:45:00;2.50;;2.43;;;;;;;
72225;SPS30;60130;52.250;5.048;2024-03-23T22:50:00;1.56;;1.50;;;;;;;
72225;SPS30;60130;52.250;5.048;2024-03-23T22:55:00;1.75;;1.65;;;;;;;
72225;SPS30;60130;52.250;5.048;2024-03-23T23:00:00;2.44;;2.34;;;;;;;
72225;SPS30;60130;52.250;5.048;2024-03-23T23:05:00;1.80;;1.70;;;;;;;
72225;SPS30;60130;52.250;5.048;2024-03-23T23:10:00;1.93;;1.85;;;;;;;
72225;SPS30;60130;52.250;5.048;2024-03-23T23:15:00;1.83;;1.73;;;;;;;
72225;SPS30;60130;52.250;5.048;2024-03-23T23:20:00;2.10;;2.00;;;;;;;
72225;SPS30;60130;52.250;5.048;2024-03-23T23:25:00;1.80;;1.73;;;;;;;
72225;SPS30;60130;52.250;5.048;2024-03-23T23:30:00;2.07;;1.95;;;;;;;
72225;SPS30;60130;52.250;5.048;2024-03-23T23:35:00;2.35;;2.35;;;;;;;
72225;SPS30;60130;52.250;5.048;2024-03-23T23:40:00;1.88;;1.75;;;;;;;
72225;SPS30;60130;52.250;5.048;2024-03-23T23:45:00;2.46;;2.29;;;;;;;
72225;SPS30;60130;52.250;5.048;2024-03-23T23:50:00;2.07;;1.91;;;;;;;
72225;SPS30;60130;52.250;5.048;2024-03-23T23:55:00;1.95;;1.84;;;;;;;
